Time;durP1;ratioP1;P1;durP2;ratioP2;P2;SDS_P1;SDS_P2;PMS_P1;PMS_P2;Temp;Humidity;BMP_temperature;BMP_pressure;BME280_temperature;BME280_humidity;BME280_pressure;Samples;Min_cycle;Max_cycle;Signal;HPM_P1;HPM_P2
2022/08/19 00:01:39;;;;;;;11.32;9.45;;;;;;;;;;4970337;28;20031;-82
2022/08/19 00:04:07;;;;;;;11.20;9.30;;;;;;;;;;4958058;28;20035;-83
2022/08/19 00:06:36;;;;;;;10.80;9.70;;;;;;;;;;4974410;28;20039;-83
2022/08/19 00:09:06;;;;;;;11.60;9.35;;;;;;;;;;4972663;28;20046;-83
2022/08/19 00:11:31;;;;;;;11.30;9.68;;;;;;;;;;4957253;28;20039;-81
2022/08/19 00:13:57;;;;;;;11.45;9.68;;;;;;;;;;4978475;28;20094;-81
2022/08/19 00:16:24;;;;;;;11.05;9.73;;;;;;;;;;4956909;28;20158;-82
2022/08/19 00:18:50;;;;;;;12.10;9.63;;;;;;;;;;4970878;28;20404;-81
2022/08/19 00:21:17;;;;;;;12.27;9.82;;;;;;;;;;4970920;28;20043;-82
2022/08/19 00:23:43;;;;;;;16.40;9.57;;;;;;;;;;4954171;28;20039;-82
2022/08/19 00:26:11;;;;;;;11.80;9.70;;;;;;;;;;4957316;28;20037;-82
2022/08/19 00:28:40;;;;;;;12.95;10.75;;;;;;;;;;4969404;28;20039;-82
2022/08/19 00:31:07;;;;;;;11.68;9.90;;;;;;;;;;4960959;28;20035;-82
2022/08/19 00:33:33;;;;;;;12.57;10.60;;;;;;;;;;4950023;28;20038;-82
2022/08/19 00:36:06;;;;;;;12.07;10.25;;;;;;;;;;4946976;28;20055;-82
2022/08/19 00:38:34;;;;;;;11.52;9.77;;;;;;;;;;4955228;28;20403;-81
2022/08/19 00:41:01;;;;;;;12.55;9.23;;;;;;;;;;4952710;28;20087;-81
2022/08/19 00:43:27;;;;;;;12.40;9.98;;;;;;;;;;4975454;28;20454;-81
2022/08/19 00:45:53;;;;;;;12.43;10.90;;;;;;;;;;4971968;28;20059;-81
2022/08/19 00:48:21;;;;;;;11.90;10.32;;;;;;;;;;4976172;28;20038;-82
2022/08/19 00:50:47;;;;;;;12.00;10.30;;;;;;;;;;4952524;28;20475;-82
2022/08/19 00:53:17;;;;;;;12.55;10.15;;;;;;;;;;4951568;28;20071;-82
2022/08/19 00:55:48;;;;;;;13.52;11.07;;;;;;;;;;4976515;28;20043;-82
2022/08/19 00:58:16;;;;;;;12.45;10.90;;;;;;;;;;4968119;28;20039;-82
2022/08/19 01:00:41;;;;;;;13.40;11.52;;;;;;;;;;4954005;28;20065;-82
2022/08/19 01:03:09;;;;;;;14.77;12.18;;;;;;;;;;4955685;28;20031;-82
2022/08/19 01:05:35;;;;;;;13.98;12.10;;;;;;;;;;4978320;28;20065;-82
2022/08/19 01:08:03;;;;;;;15.05;11.90;;;;;;;;;;4972428;28;20548;-82
2022/08/19 01:10:33;;;;;;;13.05;11.68;;;;;;;;;;4969191;28;20114;-82
2022/08/19 01:12:59;;;;;;;15.90;13.07;;;;;;;;;;4959408;28;20046;-82
2022/08/19 01:15:32;;;;;;;14.20;12.70;;;;;;;;;;4962775;28;20110;-82
2022/08/19 01:18:00;;;;;;;15.10;12.52;;;;;;;;;;4980814;28;20137;-81
2022/08/19 01:20:25;;;;;;;13.60;11.45;;;;;;;;;;4970011;28;24970;-81
2022/08/19 01:22:57;;;;;;;13.60;11.93;;;;;;;;;;4962490;28;20063;-82
2022/08/19 01:25:45;;;;;;;14.43;11.60;;;;;;;;;;4958693;28;20031;-82
2022/08/19 01:28:29;;;;;;;12.63;10.63;;;;;;;;;;4966765;28;20482;-82
2022/08/19 01:30:55;;;;;;;13.10;10.18;;;;;;;;;;4974881;28;20136;-81
2022/08/19 01:33:21;;;;;;;13.30;10.18;;;;;;;;;;4977288;28;20034;-81
2022/08/19 01:35:50;;;;;;;13.32;10.45;;;;;;;;;;4975514;28;20035;-81
2022/08/19 01:38:26;;;;;;;14.30;10.55;;;;;;;;;;4971245;28;20122;-82
2022/08/19 01:40:52;;;;;;;14.45;10.77;;;;;;;;;;4971567;28;20088;-82
2022/08/19 01:43:18;;;;;;;13.43;10.77;;;;;;;;;;4983368;28;20100;-82
2022/08/19 01:45:46;;;;;;;15.00;11.87;;;;;;;;;;4963151;28;20039;-82
2022/08/19 01:48:12;;;;;;;;;;;;;;;;;;4984598;28;20290;-84
2022/08/19 01:50:37;;;;;;;20.63;13.20;;;;;;;;;;4978314;28;20297;-83
2022/08/19 01:53:06;;;;;;;17.88;13.68;;;;;;;;;;4990723;28;20394;-83
2022/08/19 01:55:33;;;;;;;22.70;14.75;;;;;;;;;;4976533;28;20421;-84
2022/08/19 01:58:00;;;;;;;23.15;15.82;;;;;;;;;;4954438;28;20057;-85
2022/08/19 02:00:28;;;;;;;21.73;14.80;;;;;;;;;;4987140;28;20500;-84
2022/08/19 02:02:53;;;;;;;19.73;14.93;;;;;;;;;;4942615;28;20034;-85
2022/08/19 02:05:21;;;;;;;19.55;15.55;;;;;;;;;;4955099;28;20049;-86
2022/08/19 02:07:46;;;;;;;21.30;16.20;;;;;;;;;;4962048;28;20034;-85
2022/08/19 02:10:16;;;;;;;22.65;16.73;;;;;;;;;;4964922;28;20110;-85
2022/08/19 02:12:41;;;;;;;20.52;16.02;;;;;;;;;;4980399;28;20089;-86
2022/08/19 02:15:07;;;;;;;22.00;15.80;;;;;;;;;;4957367;28;20498;-83
2022/08/19 02:17:33;;;;;;;20.58;15.85;;;;;;;;;;4971876;28;20511;-86
2022/08/19 02:19:58;;;;;;;19.38;15.25;;;;;;;;;;4967013;28;20037;-85
2022/08/19 02:22:25;;;;;;;23.25;15.07;;;;;;;;;;4961473;28;20291;-85
2022/08/19 02:24:51;;;;;;;19.33;14.93;;;;;;;;;;4953865;28;20467;-86
2022/08/19 02:27:16;;;;;;;20.40;15.88;;;;;;;;;;4977613;28;20034;-87
2022/08/19 02:29:42;;;;;;;19.77;15.15;;;;;;;;;;4945314;28;20096;-86
2022/08/19 02:32:07;;;;;;;18.63;16.17;;;;;;;;;;4980183;28;20116;-84
2022/08/19 02:34:33;;;;;;;18.17;15.23;;;;;;;;;;4966666;28;20041;-85
2022/08/19 02:36:59;;;;;;;19.23;14.98;;;;;;;;;;4975770;28;20038;-85
2022/08/19 02:39:26;;;;;;;17.95;15.77;;;;;;;;;;4986023;28;20038;-83
2022/08/19 02:41:51;;;;;;;19.35;15.10;;;;;;;;;;4970428;28;20062;-85
2022/08/19 02:44:17;;;;;;;18.58;15.20;;;;;;;;;;4958199;28;20042;-84
2022/08/19 02:46:45;;;;;;;17.50;14.95;;;;;;;;;;4981658;28;20030;-85
2022/08/19 02:49:10;;;;;;;19.48;15.63;;;;;;;;;;4945168;28;20038;-85
2022/08/19 02:51:39;;;;;;;16.92;14.68;;;;;;;;;;4943850;28;20490;-84
2022/08/19 02:54:05;;;;;;;19.45;15.23;;;;;;;;;;4963871;28;20042;-85
2022/08/19 02:56:32;;;;;;;18.73;14.77;;;;;;;;;;4952710;28;20042;-85
2022/08/19 02:58:58;;;;;;;19.43;15.20;;;;;;;;;;4946433;28;20498;-84
2022/08/19 03:01:27;;;;;;;21.08;16.00;;;;;;;;;;4962029;28;20049;-84
2022/08/19 03:03:53;;;;;;;20.42;15.68;;;;;;;;;;4973120;28;20033;-85
2022/08/19 03:06:19;;;;;;;18.02;14.93;;;;;;;;;;4948931;28;20037;-84
2022/08/19 03:08:47;;;;;;;17.75;14.88;;;;;;;;;;4972473;28;20478;-84
2022/08/19 03:11:21;;;;;;;19.38;15.15;;;;;;;;;;4971589;28;20035;-84
2022/08/19 03:13:48;;;;;;;17.00;14.88;;;;;;;;;;4966938;28;20071;-85
2022/08/19 03:16:14;;;;;;;;;;;;;;;;;;4969462;28;20884;-85
2022/08/19 03:18:39;;;;;;;18.65;15.60;;;;;;;;;;4949206;28;19923;-85
2022/08/19 03:21:05;;;;;;;19.75;15.65;;;;;;;;;;4945678;28;20589;-84
2022/08/19 03:23:31;;;;;;;21.20;16.08;;;;;;;;;;4978530;28;20031;-83
2022/08/19 03:25:56;;;;;;;21.13;16.98;;;;;;;;;;4980628;28;20119;-83
2022/08/19 03:28:22;;;;;;;20.90;17.65;;;;;;;;;;4962636;28;20035;-84
2022/08/19 03:31:02;;;;;;;22.30;17.67;;;;;;;;;;4956921;28;20061;-84
2022/08/19 03:33:28;;;;;;;22.38;18.08;;;;;;;;;;4964664;28;20394;-83
2022/08/19 03:36:07;;;;;;;22.25;18.40;;;;;;;;;;4975125;28;20474;-84
2022/08/19 03:38:32;;;;;;;23.73;19.23;;;;;;;;;;4985903;28;20570;-83
2022/08/19 03:40:58;;;;;;;22.38;18.08;;;;;;;;;;4960606;28;20103;-84
2022/08/19 03:43:24;;;;;;;23.90;19.05;;;;;;;;;;4947764;28;20399;-84
2022/08/19 03:46:00;;;;;;;24.73;19.95;;;;;;;;;;4981345;28;20042;-84
2022/08/19 03:48:25;;;;;;;23.00;19.10;;;;;;;;;;4977624;28;20062;-83
2022/08/19 03:50:50;;;;;;;25.30;19.48;;;;;;;;;;4980226;28;20437;-84
2022/08/19 03:53:16;;;;;;;25.88;19.60;;;;;;;;;;4945813;28;20094;-84
2022/08/19 03:55:41;;;;;;;22.10;18.27;;;;;;;;;;4989588;28;20045;-84
2022/08/19 03:58:07;;;;;;;23.35;18.42;;;;;;;;;;4974322;28;20490;-83
2022/08/19 04:00:33;;;;;;;20.88;18.50;;;;;;;;;;4957596;28;20039;-83
2022/08/19 04:02:59;;;;;;;24.63;18.75;;;;;;;;;;4959802;28;20578;-83
2022/08/19 04:05:28;;;;;;;23.10;19.05;;;;;;;;;;4956046;28;20109;-83
2022/08/19 04:07:57;;;;;;;24.67;19.58;;;;;;;;;;4946987;28;20431;-83
2022/08/19 04:10:23;;;;;;;22.73;18.83;;;;;;;;;;4952917;28;20066;-85
2022/08/19 04:12:49;;;;;;;20.75;17.92;;;;;;;;;;4962153;28;20038;-84
2022/08/19 04:15:15;;;;;;;23.83;18.98;;;;;;;;;;4949083;28;20050;-82
2022/08/19 04:17:40;;;;;;;23.45;18.23;;;;;;;;;;4985362;28;20042;-83
2022/08/19 04:20:06;;;;;;;24.27;18.27;;;;;;;;;;4965935;28;20118;-82
2022/08/19 04:22:31;;;;;;;24.20;18.73;;;;;;;;;;4958644;28;20038;-83
2022/08/19 04:24:57;;;;;;;24.92;19.20;;;;;;;;;;4976344;28;20061;-83
2022/08/19 04:27:22;;;;;;;21.80;17.55;;;;;;;;;;4977664;28;20066;-83
2022/08/19 04:29:48;;;;;;;21.27;17.38;;;;;;;;;;4985846;28;20050;-84
2022/08/19 04:32:15;;;;;;;20.25;16.45;;;;;;;;;;4949627;28;20032;-83
2022/08/19 04:34:42;;;;;;;23.05;17.55;;;;;;;;;;4952369;28;20042;-83
2022/08/19 04:37:13;;;;;;;20.30;16.85;;;;;;;;;;4982154;28;20093;-82
2022/08/19 04:42:38;;;;;;;19.73;16.58;;;;;;;;;;4970138;28;20511;-84
2022/08/19 04:45:12;;;;;;;23.45;17.25;;;;;;;;;;4966512;28;20035;-87
2022/08/19 04:47:39;;;;;;;20.52;16.67;;;;;;;;;;4960770;28;20513;-86
2022/08/19 04:50:05;;;;;;;18.83;15.93;;;;;;;;;;4933481;28;20045;-85
2022/08/19 04:52:31;;;;;;;19.23;16.40;;;;;;;;;;4957711;28;20402;-80
2022/08/19 04:54:58;;;;;;;18.35;15.45;;;;;;;;;;4961118;28;20039;-81
2022/08/19 04:57:24;;;;;;;18.33;15.55;;;;;;;;;;4946588;28;20030;-85
2022/08/19 04:59:54;;;;;;;18.27;15.25;;;;;;;;;;4959003;28;20395;-82
2022/08/19 05:02:20;;;;;;;18.77;14.45;;;;;;;;;;4952693;28;20085;-79
2022/08/19 05:04:45;;;;;;;18.77;15.65;;;;;;;;;;4956065;28;20523;-85
2022/08/19 05:07:11;;;;;;;16.85;13.82;;;;;;;;;;4983540;28;20114;-84
2022/08/19 05:09:38;;;;;;;16.73;14.35;;;;;;;;;;4980124;28;20034;-83
2022/08/19 05:12:05;;;;;;;16.50;14.02;;;;;;;;;;4982282;28;20038;-85
2022/08/19 05:14:32;;;;;;;16.00;13.80;;;;;;;;;;4987078;28;20042;-83
2022/08/19 05:16:57;;;;;;;15.73;13.00;;;;;;;;;;4981916;28;20486;-85
2022/08/19 05:24:51;;;;;;;15.10;12.43;;;;;;;;;;4975965;28;20045;-85
2022/08/19 05:27:16;;;;;;;15.02;12.88;;;;;;;;;;4978780;28;20034;-83
2022/08/19 05:29:41;;;;;;;14.77;12.40;;;;;;;;;;4983523;28;20517;-84
2022/08/19 05:32:08;;;;;;;15.65;13.18;;;;;;;;;;4959534;28;20070;-83
2022/08/19 05:47:55;;;;;;;15.88;12.40;;;;;;;;;;6150646;22;1336271;-90
2022/08/19 05:50:21;;;;;;;13.63;11.40;;;;;;;;;;6080240;23;20017;-91
2022/08/19 05:52:46;;;;;;;15.25;12.75;;;;;;;;;;6107276;23;20030;-90
2022/08/19 05:55:12;;;;;;;14.27;12.40;;;;;;;;;;6106159;23;20149;-91
2022/08/19 05:57:42;;;;;;;16.20;12.07;;;;;;;;;;6107305;23;20371;-91
2022/08/19 06:00:11;;;;;;;14.40;12.80;;;;;;;;;;6135971;23;20014;-90
2022/08/19 06:02:37;;;;;;;15.18;12.48;;;;;;;;;;6108240;23;20446;-91
2022/08/19 06:05:09;;;;;;;14.88;13.27;;;;;;;;;;6103023;23;20014;-90
2022/08/19 06:07:38;;;;;;;13.60;12.10;;;;;;;;;;6105300;23;20097;-90
2022/08/19 06:10:05;;;;;;;14.50;11.63;;;;;;;;;;6116319;23;20017;-89
2022/08/19 06:12:32;;;;;;;15.13;12.23;;;;;;;;;;6101212;23;20010;-91
2022/08/19 06:14:59;;;;;;;15.50;12.77;;;;;;;;;;6102097;23;20022;-89
2022/08/19 06:17:25;;;;;;;17.55;13.23;;;;;;;;;;6101467;23;20080;-88
2022/08/19 06:19:50;;;;;;;14.43;12.45;;;;;;;;;;6101403;23;20614;-89
2022/08/19 06:22:16;;;;;;;14.18;12.43;;;;;;;;;;6100554;23;20017;-89
2022/08/19 06:24:42;;;;;;;15.55;12.95;;;;;;;;;;6099942;23;20077;-91
2022/08/19 06:27:07;;;;;;;15.93;12.45;;;;;;;;;;6100210;23;20454;-90
2022/08/19 06:29:35;;;;;;;14.82;13.27;;;;;;;;;;6101883;23;20025;-90
2022/08/19 06:32:02;;;;;;;17.42;13.35;;;;;;;;;;6124970;23;20342;-89
2022/08/19 06:34:31;;;;;;;14.45;12.80;;;;;;;;;;6126061;23;20010;-90
2022/08/19 06:37:00;;;;;;;16.08;12.88;;;;;;;;;;6099604;23;20442;-89
2022/08/19 06:39:29;;;;;;;14.48;12.98;;;;;;;;;;6127004;23;20016;-89
2022/08/19 06:41:57;;;;;;;17.20;13.18;;;;;;;;;;6124624;23;20116;-89
2022/08/19 06:44:25;;;;;;;15.40;12.18;;;;;;;;;;6127167;23;20033;-90
2022/08/19 06:46:50;;;;;;;15.80;13.45;;;;;;;;;;6099345;23;20538;-89
2022/08/19 06:49:17;;;;;;;14.15;12.57;;;;;;;;;;6096914;23;20048;-88
2022/08/19 06:51:44;;;;;;;16.23;13.48;;;;;;;;;;6095054;23;20010;-89
2022/08/19 06:54:10;;;;;;;15.40;12.93;;;;;;;;;;6097165;23;20061;-88
2022/08/19 06:56:37;;;;;;;18.85;14.70;;;;;;;;;;6119137;23;20106;-89
2022/08/19 06:59:22;;;;;;;15.45;13.07;;;;;;;;;;6119985;23;20041;-88
2022/08/19 07:01:51;;;;;;;16.23;13.02;;;;;;;;;;6120586;23;20457;-89
2022/08/19 07:04:17;;;;;;;16.92;13.02;;;;;;;;;;6120050;23;20092;-89
2022/08/19 07:06:43;;;;;;;16.42;13.00;;;;;;;;;;6119758;23;20304;-90
2022/08/19 07:09:10;;;;;;;15.73;12.63;;;;;;;;;;6118695;23;20528;-90
2022/08/19 07:11:36;;;;;;;14.63;12.57;;;;;;;;;;6093923;23;20018;-89
2022/08/19 07:14:02;;;;;;;14.80;12.65;;;;;;;;;;6096144;23;20442;-89
2022/08/19 07:16:30;;;;;;;15.82;13.20;;;;;;;;;;6093506;23;20022;-89
2022/08/19 07:18:56;;;;;;;14.25;12.10;;;;;;;;;;6117787;23;20384;-89
2022/08/19 07:21:30;;;;;;;14.10;11.55;;;;;;;;;;6095628;23;20014;-89
2022/08/19 07:23:56;;;;;;;12.70;11.40;;;;;;;;;;6095367;23;20022;-90
2022/08/19 07:26:26;;;;;;;13.07;11.67;;;;;;;;;;6093486;23;20320;-88
2022/08/19 07:28:52;;;;;;;16.60;12.30;;;;;;;;;;6095518;23;20241;-90
2022/08/19 07:31:20;;;;;;;12.48;10.88;;;;;;;;;;6094345;23;20013;-89
2022/08/19 07:33:47;;;;;;;13.75;11.30;;;;;;;;;;6094594;23;20405;-87
2022/08/19 07:36:15;;;;;;;12.90;11.55;;;;;;;;;;6092619;23;20111;-88
2022/08/19 07:38:41;;;;;;;15.23;11.75;;;;;;;;;;6117784;23;20331;-89
2022/08/19 07:41:09;;;;;;;13.43;11.60;;;;;;;;;;6117812;23;20076;-88
2022/08/19 07:43:34;;;;;;;13.45;11.93;;;;;;;;;;6093223;23;20782;-88
2022/08/19 07:45:59;;;;;;;14.98;12.27;;;;;;;;;;6091842;23;20045;-88
2022/08/19 07:48:26;;;;;;;15.85;11.73;;;;;;;;;;6070778;23;20351;-87
2022/08/19 07:50:57;;;;;;;13.25;11.85;;;;;;;;;;6093335;23;20057;-89
2022/08/19 07:53:23;;;;;;;13.65;11.90;;;;;;;;;;6070005;23;20064;-88
2022/08/19 07:55:49;;;;;;;15.23;11.98;;;;;;;;;;6069049;23;20329;-89
2022/08/19 07:58:17;;;;;;;15.52;12.40;;;;;;;;;;6069256;23;20105;-87
2022/08/19 08:00:43;;;;;;;16.38;13.38;;;;;;;;;;6068416;23;20010;-89
2022/08/19 08:03:09;;;;;;;14.88;13.10;;;;;;;;;;6093257;23;20032;-89
2022/08/19 08:11:04;;;;;;;16.38;14.35;;;;;;;;;;6096426;23;20068;-89
2022/08/19 08:13:30;;;;;;;15.82;14.13;;;;;;;;;;6070010;23;20488;-88
2022/08/19 08:15:56;;;;;;;15.50;13.88;;;;;;;;;;6069313;23;20089;-88
2022/08/19 08:18:23;;;;;;;16.38;13.73;;;;;;;;;;6070363;23;20073;-90
2022/08/19 08:20:48;;;;;;;17.25;14.82;;;;;;;;;;6068585;23;20596;-90
2022/08/19 08:23:24;;;;;;;17.98;14.20;;;;;;;;;;6069036;23;20022;-93
2022/08/19 08:25:50;;;;;;;15.15;13.43;;;;;;;;;;6050622;23;20415;-91
2022/08/19 08:28:17;;;;;;;17.83;14.02;;;;;;;;;;6068042;23;20018;-91
2022/08/19 08:30:43;;;;;;;15.38;13.23;;;;;;;;;;6041655;23;20442;-91
2022/08/19 08:33:09;;;;;;;14.85;13.25;;;;;;;;;;6068387;23;20065;-92
2022/08/19 08:35:35;;;;;;;16.05;14.35;;;;;;;;;;6022918;23;20383;-93
2022/08/19 08:38:03;;;;;;;17.33;13.93;;;;;;;;;;6045075;23;20406;-93
2022/08/19 08:40:48;;;;;;;15.35;13.75;;;;;;;;;;6052452;23;20478;-92
2022/08/19 08:43:44;;;;;;;19.65;14.10;;;;;;;;;;6091361;23;20126;-92
2022/08/19 08:46:19;;;;;;;17.35;14.63;;;;;;;;;;5922308;23;20120;-91
2022/08/19 08:49:08;;;;;;;16.33;13.88;;;;;;;;;;5919341;24;20044;-93
2022/08/19 08:51:41;;;;;;;17.98;14.13;;;;;;;;;;5876450;24;20481;-91
2022/08/19 08:54:12;;;;;;;16.92;14.50;;;;;;;;;;5898496;24;20025;-90
2022/08/19 08:56:40;;;;;;;17.08;14.27;;;;;;;;;;5920212;24;20025;-93
2022/08/19 08:59:32;;;;;;;17.67;14.35;;;;;;;;;;5884808;24;20107;-92
2022/08/19 09:01:58;;;;;;;16.60;14.82;;;;;;;;;;5879976;24;20451;-92
2022/08/19 09:04:29;;;;;;;18.10;14.52;;;;;;;;;;5908473;24;20021;-91
2022/08/19 09:07:07;;;;;;;16.90;15.05;;;;;;;;;;5906966;24;20043;-93
2022/08/19 09:09:39;;;;;;;16.17;14.57;;;;;;;;;;5910099;24;20020;-92
2022/08/19 09:12:09;;;;;;;18.90;15.13;;;;;;;;;;5881160;24;20044;-90
2022/08/19 09:15:00;;;;;;;15.77;14.02;;;;;;;;;;5893232;24;20188;-90
2022/08/19 09:17:38;;;;;;;21.08;14.73;;;;;;;;;;5906423;24;20089;-90
2022/08/19 09:20:06;;;;;;;;;;;;;;;;;;5887110;24;20025;-90
2022/08/19 09:22:32;;;;;;;16.60;13.60;;;;;;;;;;5978293;23;20320;-90
2022/08/19 09:25:45;;;;;;;;;;;;;;;;;;;;;
2022/08/19 09:28:11;;;;;;;14.80;13.10;;;;;;;;;;6079952;23;20620;-89
2022/08/19 09:30:40;;;;;;;15.32;13.65;;;;;;;;;;6034674;23;20763;-91
2022/08/19 09:33:15;;;;;;;13.95;12.52;;;;;;;;;;6028133;23;20096;-90
2022/08/19 09:35:42;;;;;;;14.48;12.98;;;;;;;;;;6041602;23;20519;-91
2022/08/19 09:38:08;;;;;;;13.77;12.38;;;;;;;;;;6037049;23;20090;-91
2022/08/19 09:40:34;;;;;;;14.27;12.88;;;;;;;;;;6037480;23;20090;-92
2022/08/19 09:43:02;;;;;;;14.02;12.50;;;;;;;;;;6037996;23;20049;-90
2022/08/19 09:45:28;;;;;;;13.13;11.73;;;;;;;;;;6038061;23;20018;-91
2022/08/19 09:47:54;;;;;;;14.25;12.57;;;;;;;;;;6082273;23;20037;-90
2022/08/19 09:50:23;;;;;;;13.52;12.10;;;;;;;;;;6090088;23;20013;-90
2022/08/19 09:52:52;;;;;;;14.18;12.27;;;;;;;;;;6089867;23;20010;-90
2022/08/19 09:55:17;;;;;;;13.50;12.10;;;;;;;;;;6089382;23;20045;-90
2022/08/19 09:57:43;;;;;;;13.52;12.18;;;;;;;;;;6073272;23;20010;-90
2022/08/19 10:00:12;;;;;;;13.15;11.50;;;;;;;;;;6091418;23;20022;-91
2022/08/19 10:02:40;;;;;;;13.20;11.60;;;;;;;;;;6114663;23;20334;-91
2022/08/19 10:07:50;;;;;;;12.57;10.93;;;;;;;;;;6112796;23;20086;-92
2022/08/19 10:10:16;;;;;;;12.20;10.90;;;;;;;;;;6090628;23;21022;-90
2022/08/19 10:12:42;;;;;;;13.30;11.02;;;;;;;;;;6090558;23;20097;-85
2022/08/19 10:15:08;;;;;;;12.83;11.50;;;;;;;;;;6115234;23;20078;-89
2022/08/19 10:17:34;;;;;;;12.02;10.57;;;;;;;;;;6089402;23;20010;-87
2022/08/19 10:20:02;;;;;;;12.15;10.75;;;;;;;;;;6115688;23;20022;-88
2022/08/19 10:22:28;;;;;;;12.90;10.18;;;;;;;;;;6115963;23;20037;-88
2022/08/19 10:24:53;;;;;;;13.10;11.52;;;;;;;;;;6118867;23;20026;-88
2022/08/19 10:27:19;;;;;;;13.13;10.85;;;;;;;;;;6081923;23;20352;-87
2022/08/19 10:29:44;;;;;;;12.05;10.60;;;;;;;;;;6093443;23;20013;-86
2022/08/19 10:32:09;;;;;;;11.82;9.95;;;;;;;;;;6090635;23;20023;-85
2022/08/19 10:34:37;;;;;;;12.40;10.93;;;;;;;;;;6117800;23;20013;-87
2022/08/19 10:37:05;;;;;;;12.38;10.40;;;;;;;;;;6092598;23;20093;-87
2022/08/19 10:39:33;;;;;;;12.02;10.57;;;;;;;;;;6117648;23;20042;-87
2022/08/19 10:41:58;;;;;;;13.23;10.35;;;;;;;;;;6103765;23;20013;-88
2022/08/19 10:44:23;;;;;;;12.02;10.43;;;;;;;;;;6093474;23;20010;-87
2022/08/19 10:46:49;;;;;;;13.07;10.48;;;;;;;;;;6092259;23;20029;-87
2022/08/19 10:49:14;;;;;;;11.70;10.05;;;;;;;;;;6092490;23;20021;-86
2022/08/19 10:56:50;;;;;;;13.10;10.68;;;;;;;;;;6103703;23;20347;-85
2022/08/19 10:57:13;;;;;;;11.25;10.02;;;;;;;;;;6124619;23;20401;-82
2022/08/19 10:59:38;;;;;;;11.80;10.00;;;;;;;;;;6125172;23;20050;-82
2022/08/19 11:02:06;;;;;;;11.93;10.02;;;;;;;;;;6085772;23;20006;-80
2022/08/19 11:04:32;;;;;;;;;;;;;;;;;;6119829;23;20055;-80
2022/08/19 11:06:57;;;;;;;11.88;10.48;;;;;;;;;;6095270;23;19921;-80
2022/08/19 11:09:25;;;;;;;13.13;10.10;;;;;;;;;;6097433;23;20129;-81
2022/08/19 11:11:50;;;;;;;12.43;10.88;;;;;;;;;;6119864;23;20034;-80
2022/08/19 11:14:20;;;;;;;12.10;10.68;;;;;;;;;;6120482;23;20022;-80
2022/08/19 11:16:47;;;;;;;12.15;10.77;;;;;;;;;;6120044;23;20074;-80
2022/08/19 11:19:15;;;;;;;12.35;10.32;;;;;;;;;;6120808;23;20016;-80
2022/08/19 11:21:42;;;;;;;11.95;10.38;;;;;;;;;;6120177;23;20037;-80
2022/08/19 11:24:11;;;;;;;12.95;10.73;;;;;;;;;;6096876;23;20020;-81
2022/08/19 11:26:37;;;;;;;12.48;10.30;;;;;;;;;;6096056;23;20018;-80
2022/08/19 11:29:05;;;;;;;11.18;9.75;;;;;;;;;;6095526;23;20447;-80
2022/08/19 11:31:36;;;;;;;11.88;10.00;;;;;;;;;;6095921;23;20164;-81
2022/08/19 11:34:04;;;;;;;12.13;9.90;;;;;;;;;;6087773;23;20016;-81
2022/08/19 11:36:31;;;;;;;13.05;9.88;;;;;;;;;;6120087;23;20106;-81
2022/08/19 11:38:56;;;;;;;10.30;9.18;;;;;;;;;;6096945;23;20450;-81
2022/08/19 11:41:23;;;;;;;11.95;8.90;;;;;;;;;;6117432;23;20013;-81
2022/08/19 11:43:49;;;;;;;13.57;8.75;;;;;;;;;;6094059;23;20040;-81
2022/08/19 11:46:15;;;;;;;12.15;8.95;;;;;;;;;;6116951;23;20482;-81
2022/08/19 11:48:41;;;;;;;11.15;8.75;;;;;;;;;;6069721;23;20032;-82
2022/08/19 11:51:15;;;;;;;10.73;8.80;;;;;;;;;;6069332;23;20025;-82
2022/08/19 11:53:40;;;;;;;10.07;8.57;;;;;;;;;;6069505;23;20010;-82
2022/08/19 11:56:07;;;;;;;10.40;8.48;;;;;;;;;;6093325;23;20045;-81
2022/08/19 11:58:34;;;;;;;9.82;8.57;;;;;;;;;;6069558;23;20020;-81
2022/08/19 12:00:59;;;;;;;11.02;8.23;;;;;;;;;;6069392;23;20446;-82
2022/08/19 12:03:25;;;;;;;9.13;7.88;;;;;;;;;;6093194;23;20017;-81
2022/08/19 12:05:51;;;;;;;9.00;8.10;;;;;;;;;;6068928;23;20009;-81
2022/08/19 12:08:17;;;;;;;10.02;8.32;;;;;;;;;;6094188;23;20026;-81
2022/08/19 12:10:44;;;;;;;8.82;7.68;;;;;;;;;;6093611;23;20315;-82
2022/08/19 12:13:10;;;;;;;10.35;8.38;;;;;;;;;;6069514;23;20560;-82
2022/08/19 12:15:37;;;;;;;10.43;7.72;;;;;;;;;;6092641;23;20486;-82
2022/08/19 12:18:03;;;;;;;10.07;7.63;;;;;;;;;;6093891;23;20017;-82
2022/08/19 12:20:29;;;;;;;9.85;7.53;;;;;;;;;;6093608;23;20014;-81
2022/08/19 12:22:54;;;;;;;9.02;7.78;;;;;;;;;;6069224;23;20458;-82
2022/08/19 12:25:20;;;;;;;10.43;7.50;;;;;;;;;;6067083;23;20021;-81
2022/08/19 12:27:46;;;;;;;9.77;7.60;;;;;;;;;;6067588;23;20082;-80
2022/08/19 12:30:13;;;;;;;8.70;6.82;;;;;;;;;;6067642;23;20022;-82
2022/08/19 12:32:40;;;;;;;8.10;7.20;;;;;;;;;;6091633;23;20018;-82
2022/08/19 12:35:06;;;;;;;;;;;;;;;;;;6093581;23;20026;-81
2022/08/19 12:37:32;;;;;;;9.60;6.95;;;;;;;;;;6069082;23;20393;-82
2022/08/19 12:39:58;;;;;;;9.57;7.22;;;;;;;;;;6069775;23;20030;-82
2022/08/19 12:42:23;;;;;;;13.65;7.28;;;;;;;;;;6069499;23;20060;-81
2022/08/19 12:44:49;;;;;;;9.32;6.80;;;;;;;;;;6094134;23;20061;-81
2022/08/19 12:47:14;;;;;;;8.70;6.75;;;;;;;;;;6075301;23;20057;-80
2022/08/19 12:49:40;;;;;;;8.20;6.70;;;;;;;;;;6093251;23;20022;-82
2022/08/19 12:52:07;;;;;;;9.25;6.72;;;;;;;;;;6093187;23;20018;-80
2022/08/19 12:54:34;;;;;;;8.05;5.93;;;;;;;;;;6117781;23;20013;-81
2022/08/19 12:56:59;;;;;;;7.72;6.68;;;;;;;;;;6092810;23;20022;-81
2022/08/19 12:59:25;;;;;;;8.85;6.10;;;;;;;;;;6118487;23;20010;-80
2022/08/19 13:01:51;;;;;;;7.10;6.07;;;;;;;;;;6092357;23;20006;-80
2022/08/19 13:04:16;;;;;;;7.97;6.10;;;;;;;;;;6118491;23;20025;-80
2022/08/19 13:06:42;;;;;;;8.35;5.95;;;;;;;;;;6092685;23;20095;-81
2022/08/19 13:09:08;;;;;;;8.20;6.20;;;;;;;;;;6094439;23;20101;-81
2022/08/19 13:11:34;;;;;;;7.68;6.13;;;;;;;;;;6093954;23;20056;-82
2022/08/19 13:14:01;;;;;;;8.45;6.10;;;;;;;;;;6093661;23;20014;-81
2022/08/19 13:16:27;;;;;;;9.45;6.35;;;;;;;;;;6094622;23;20021;-82
2022/08/19 13:18:53;;;;;;;6.88;5.95;;;;;;;;;;6118730;23;20044;-81
2022/08/19 13:21:23;;;;;;;7.50;6.50;;;;;;;;;;6093083;23;20398;-79
2022/08/19 13:23:48;;;;;;;8.70;7.03;;;;;;;;;;6118474;23;20406;-80
2022/08/19 13:26:14;;;;;;;8.43;7.20;;;;;;;;;;6093716;23;20018;-81
2022/08/19 13:34:10;;;;;;;9.38;7.60;;;;;;;;;;6118184;23;20020;-83
2022/08/19 13:36:36;;;;;;;10.43;7.68;;;;;;;;;;6092904;23;20006;-81
2022/08/19 13:39:03;;;;;;;9.02;7.10;;;;;;;;;;6118606;23;20446;-83
2022/08/19 13:41:29;;;;;;;8.05;7.25;;;;;;;;;;6117244;23;20058;-83
2022/08/19 13:43:54;;;;;;;9.30;7.68;;;;;;;;;;6119947;23;20506;-82
2022/08/19 13:46:23;;;;;;;7.95;7.15;;;;;;;;;;6093057;23;20025;-86
2022/08/19 13:48:48;;;;;;;7.53;6.63;;;;;;;;;;6070039;23;20034;-80
2022/08/19 13:51:16;;;;;;;7.63;6.55;;;;;;;;;;6094415;23;20093;-80
2022/08/19 13:53:42;;;;;;;;;;;;;;;;;;6095318;23;20064;-80
2022/08/19 13:56:10;;;;;;;7.30;6.22;;;;;;;;;;6094248;23;19909;-80
2022/08/19 13:58:36;;;;;;;9.10;6.50;;;;;;;;;;6093684;23;20025;-83
2022/08/19 14:01:03;;;;;;;8.27;6.35;;;;;;;;;;6071107;23;20014;-80
2022/08/19 14:03:28;;;;;;;9.23;6.18;;;;;;;;;;6071568;23;20097;-82
2022/08/19 14:05:54;;;;;;;8.07;6.50;;;;;;;;;;6072245;23;20044;-80
2022/08/19 14:08:20;;;;;;;7.60;6.20;;;;;;;;;;6071759;23;20022;-81
2022/08/19 14:10:55;;;;;;;6.80;6.00;;;;;;;;;;6094393;23;20021;-80
2022/08/19 14:13:21;;;;;;;8.68;6.45;;;;;;;;;;6071518;23;20021;-80
2022/08/19 14:15:57;;;;;;;8.27;6.50;;;;;;;;;;6044525;23;20447;-92
2022/08/19 14:18:24;;;;;;;7.75;6.38;;;;;;;;;;6069525;23;20010;-85
2022/08/19 14:20:52;;;;;;;8.35;6.35;;;;;;;;;;6088922;23;20014;-81
2022/08/19 14:23:18;;;;;;;8.60;6.70;;;;;;;;;;6095086;23;20505;-78
2022/08/19 14:25:44;;;;;;;8.48;7.13;;;;;;;;;;6096656;23;20022;-80
2022/08/19 14:28:09;;;;;;;9.18;6.32;;;;;;;;;;6096221;23;20022;-83
2022/08/19 14:30:37;;;;;;;9.18;6.65;;;;;;;;;;6071516;23;20025;-83
2022/08/19 14:33:04;;;;;;;8.35;6.45;;;;;;;;;;6071033;23;20037;-83
2022/08/19 14:35:34;;;;;;;7.53;6.30;;;;;;;;;;6070582;23;20013;-79
2022/08/19 14:37:59;;;;;;;8.63;6.60;;;;;;;;;;6095444;23;20019;-82
2022/08/19 14:40:27;;;;;;;7.72;6.60;;;;;;;;;;6071799;23;20346;-82
2022/08/19 14:42:55;;;;;;;8.27;6.78;;;;;;;;;;6072078;23;20141;-82
2022/08/19 14:45:21;;;;;;;8.25;6.22;;;;;;;;;;6072317;23;20014;-80
2022/08/19 14:47:46;;;;;;;8.45;6.63;;;;;;;;;;6121282;23;20482;-81
2022/08/19 14:50:12;;;;;;;7.32;6.35;;;;;;;;;;6119288;23;20018;-80
2022/08/19 14:52:39;;;;;;;9.50;6.60;;;;;;;;;;6070521;23;20014;-82
2022/08/19 14:55:08;;;;;;;7.57;6.78;;;;;;;;;;6097735;23;20453;-83
2022/08/19 14:57:33;;;;;;;8.30;6.45;;;;;;;;;;6048053;23;20098;-83
2022/08/19 14:59:59;;;;;;;8.93;6.47;;;;;;;;;;6073369;23;20014;-82
2022/08/19 15:02:25;;;;;;;7.88;6.55;;;;;;;;;;6059481;23;20378;-82
2022/08/19 15:04:51;;;;;;;7.55;6.70;;;;;;;;;;6096576;23;20032;-79
2022/08/19 15:07:17;;;;;;;9.55;7.60;;;;;;;;;;6095849;23;20040;-84